Time;durP1;ratioP1;P1;durP2;ratioP2;P2;SDS_P1;SDS_P2;PMS_P1;PMS_P2;Temp;Humidity;BMP_temperature;BMP_pressure;BME280_temperature;BME280_humidity;BME280_pressure;Samples;Min_cycle;Max_cycle;Signal;HPM_P1;HPM_P2
2023/05/24 00:01:30;;;;;;;0.15;0.15;;;;;;;21.26;47.78;101988.53;5110340;27;20070;-45
2023/05/24 00:03:57;;;;;;;0.10;0.10;;;;;;;21.26;47.73;101991.31;5119812;27;20049;-46
2023/05/24 00:06:25;;;;;;;0.20;0.20;;;;;;;21.26;47.68;101994.06;5122232;27;20780;-44
2023/05/24 00:08:51;;;;;;;0.17;0.17;;;;;;;21.25;47.67;101996.03;5123443;27;20043;-46
2023/05/24 00:11:17;;;;;;;0.20;0.20;;;;;;;21.25;47.79;101996.03;5101685;27;20066;-46
2023/05/24 00:13:43;;;;;;;0.10;0.10;;;;;;;21.24;47.73;101997.13;5095135;27;20212;-46
2023/05/24 00:16:08;;;;;;;0.10;0.10;;;;;;;21.24;47.86;102002.66;5119856;27;20047;-44
2023/05/24 00:18:39;;;;;;;0.20;0.20;;;;;;;21.24;47.74;102002.66;5125997;27;20056;-44
2023/05/24 00:21:07;;;;;;;0.10;0.10;;;;;;;21.24;47.75;102002.66;5118627;27;20096;-45
2023/05/24 00:23:33;;;;;;;0.13;0.13;;;;;;;21.25;47.86;102003.50;5102255;27;20047;-44
2023/05/24 00:26:00;;;;;;;0.20;0.20;;;;;;;21.24;47.76;101990.72;5116401;27;20521;-44
2023/05/24 00:28:26;;;;;;;0.10;0.10;;;;;;;21.24;47.57;101987.97;5112154;28;20482;-44
2023/05/24 00:30:52;;;;;;;0.10;0.10;;;;;;;21.24;47.78;101991.59;5124158;27;20050;-46
2023/05/24 00:33:17;;;;;;;0.20;0.20;;;;;;;21.23;47.86;101987.13;5123285;27;20047;-43
2023/05/24 00:35:43;;;;;;;0.13;0.13;;;;;;;21.24;47.88;101982.41;5114483;27;20043;-46
2023/05/24 00:38:09;;;;;;;0.20;0.20;;;;;;;21.23;47.86;101984.34;5123179;27;20039;-46
2023/05/24 00:40:34;;;;;;;0.20;0.20;;;;;;;21.24;47.72;101985.19;5128864;27;20437;-44
2023/05/24 00:43:00;;;;;;;0.10;0.10;;;;;;;21.23;47.73;101981.59;5121424;27;20541;-44
2023/05/24 00:45:26;;;;;;;0.20;0.20;;;;;;;21.23;47.87;101980.75;5123204;27;20042;-44
2023/05/24 00:47:51;;;;;;;0.10;0.10;;;;;;;21.24;47.82;101987.97;5134424;27;20055;-46
2023/05/24 00:50:18;;;;;;;0.20;0.20;;;;;;;21.24;47.67;101990.72;5135507;27;20504;-43
2023/05/24 00:52:43;;;;;;;0.20;0.20;;;;;;;21.24;47.67;101983.28;5115277;27;20099;-44
2023/05/24 00:55:10;;;;;;;0.10;0.10;;;;;;;21.23;47.66;101989.91;5102459;27;20039;-45
2023/05/24 00:57:36;;;;;;;0.10;0.10;;;;;;;21.23;47.80;101986.28;5132906;27;20453;-45
2023/05/24 01:00:04;;;;;;;0.28;0.28;;;;;;;21.23;47.62;101986.28;5086382;27;20062;-44
2023/05/24 01:02:31;;;;;;;0.10;0.10;;;;;;;21.23;47.73;101978.81;5117523;27;20054;-45
2023/05/24 01:04:58;;;;;;;0.20;0.20;;;;;;;21.22;47.81;101976.31;5125433;27;20099;-44
2023/05/24 01:07:37;;;;;;;0.10;0.10;;;;;;;21.24;47.78;101976.88;5122616;27;20083;-45
2023/05/24 01:10:27;;;;;;;0.10;0.10;;;;;;;21.22;47.64;101977.16;5132393;27;20510;-44
2023/05/24 01:13:00;;;;;;;0.10;0.10;;;;;;;21.22;47.73;101970.78;5106367;28;20582;-46
2023/05/24 01:15:36;;;;;;;0.20;0.20;;;;;;;21.22;47.67;101977.16;5096659;27;20571;-44
2023/05/24 01:18:14;;;;;;;0.13;0.13;;;;;;;21.23;47.75;101972.44;5122150;27;20811;-43
2023/05/24 01:20:40;;;;;;;0.10;0.10;;;;;;;21.22;47.65;101966.06;5127698;27;20040;-44
2023/05/24 01:23:30;;;;;;;0.20;0.20;;;;;;;21.22;47.80;101966.06;5121393;27;20066;-45
2023/05/24 01:26:08;;;;;;;0.20;0.20;;;;;;;21.22;47.85;101974.38;5120867;27;20061;-45
2023/05/24 01:28:34;;;;;;;0.10;0.10;;;;;;;21.22;47.84;101973.56;5129070;27;20061;-45
2023/05/24 01:31:00;;;;;;;0.20;0.20;;;;;;;21.21;47.67;101975.50;5125381;27;20813;-44
2023/05/24 01:33:26;;;;;;;0.20;0.20;;;;;;;21.21;47.82;101971.91;5120243;27;20152;-44
2023/05/24 01:35:52;;;;;;;0.20;0.20;;;;;;;21.22;47.62;101970.78;5119309;27;20066;-45
2023/05/24 01:38:17;;;;;;;0.20;0.20;;;;;;;21.22;47.79;101965.25;5130239;27;20427;-44
2023/05/24 01:40:46;;;;;;;0.20;0.20;;;;;;;21.22;47.72;101979.94;5120793;27;20047;-44
2023/05/24 01:43:33;;;;;;;0.20;0.20;;;;;;;21.22;47.75;101970.78;5102478;27;20051;-44
2023/05/24 01:46:14;;;;;;;0.17;0.17;;;;;;;21.21;47.60;101958.88;5132188;27;20042;-44
2023/05/24 01:48:54;;;;;;;0.20;0.20;;;;;;;21.20;47.65;101954.44;5126179;27;20074;-45
2023/05/24 01:51:23;;;;;;;0.20;0.20;;;;;;;21.20;47.73;101956.34;5134578;27;20540;-44
2023/05/24 01:53:49;;;;;;;0.20;0.20;;;;;;;21.21;47.67;101947.78;5113212;27;20066;-45
2023/05/24 01:56:16;;;;;;;0.10;0.10;;;;;;;21.21;47.64;101956.09;5086668;27;20414;-44
2023/05/24 01:58:44;;;;;;;0.17;0.17;;;;;;;21.21;47.73;101955.28;5108594;28;20403;-44
2023/05/24 02:01:10;;;;;;;0.13;0.13;;;;;;;21.21;47.69;101955.28;5102308;27;20190;-47
2023/05/24 02:03:37;;;;;;;0.10;0.10;;;;;;;21.21;47.78;101958.03;5112637;27;20519;-45
2023/05/24 02:06:03;;;;;;;0.10;0.10;;;;;;;21.20;47.86;101948.03;5120897;27;20398;-45
2023/05/24 02:08:30;;;;;;;0.17;0.17;;;;;;;21.20;47.77;101953.59;5131368;27;20092;-44
2023/05/24 02:10:55;;;;;;;0.10;0.10;;;;;;;21.19;47.66;101949.97;5124602;27;20039;-44
2023/05/24 02:13:21;;;;;;;0.20;0.20;;;;;;;21.19;47.71;101946.38;5120640;27;20120;-46
2023/05/24 02:15:47;;;;;;;0.20;0.20;;;;;;;21.19;47.63;101954.69;5131124;27;20050;-44
2023/05/24 02:18:12;;;;;;;0.10;0.10;;;;;;;21.20;47.64;101965.53;5121558;27;20042;-44
2023/05/24 02:20:39;;;;;;;0.10;0.10;;;;;;;21.19;47.76;101955.53;5127269;27;20043;-46
2023/05/24 02:23:06;;;;;;;0.20;0.20;;;;;;;21.20;47.82;101954.44;5102150;27;20088;-44
2023/05/24 02:25:32;;;;;;;0.20;0.20;;;;;;;21.19;47.77;101949.97;5115232;27;20031;-43
2023/05/24 02:27:58;;;;;;;0.20;0.20;;;;;;;21.19;47.73;101946.38;5111506;27;20043;-45
2023/05/24 02:30:24;;;;;;;0.20;0.20;;;;;;;21.19;47.78;101941.66;5099119;28;20081;-44
2023/05/24 02:32:50;;;;;;;0.10;0.10;;;;;;;21.19;47.63;101936.13;5092035;27;20035;-44
2023/05/24 02:35:15;;;;;;;0.20;0.20;;;;;;;21.19;47.71;101938.91;5105137;27;20454;-43
2023/05/24 02:37:41;;;;;;;0.20;0.20;;;;;;;21.18;47.67;101937.25;5131096;27;20038;-44
2023/05/24 02:40:07;;;;;;;0.20;0.20;;;;;;;21.18;47.66;101937.25;5120218;27;20039;-45
2023/05/24 02:42:33;;;;;;;0.10;0.10;;;;;;;21.18;47.78;101940.00;5120362;27;20039;-44
2023/05/24 02:44:59;;;;;;;0.20;0.20;;;;;;;21.19;47.79;101940.84;5118338;27;20051;-45
2023/05/24 02:47:25;;;;;;;0.10;0.10;;;;;;;21.19;47.66;101949.16;5104059;27;20215;-44
2023/05/24 02:49:52;;;;;;;0.20;0.20;;;;;;;21.19;47.61;101943.63;5097252;27;20047;-44
2023/05/24 02:52:20;;;;;;;0.10;0.10;;;;;;;21.18;47.79;101950.25;5112602;27;20518;-42
2023/05/24 02:54:46;;;;;;;0.20;0.20;;;;;;;21.19;47.66;101943.63;5119411;27;20440;-41
2023/05/24 02:57:12;;;;;;;0.20;0.20;;;;;;;21.18;47.70;101939.19;5128055;27;20058;-42
2023/05/24 02:59:37;;;;;;;0.10;0.10;;;;;;;21.18;47.62;101947.50;5122645;27;20043;-43
2023/05/24 03:02:03;;;;;;;0.20;0.20;;;;;;;21.18;47.75;101944.72;5119676;27;20050;-46
2023/05/24 03:04:29;;;;;;;0.20;0.20;;;;;;;21.17;47.87;101952.19;5119676;27;20091;-45
2023/05/24 03:06:55;;;;;;;0.20;0.20;;;;;;;21.18;47.68;101950.25;5116430;27;20119;-43
2023/05/24 03:09:20;;;;;;;0.20;0.20;;;;;;;21.18;47.66;101950.25;5120230;27;20050;-42
2023/05/24 03:11:46;;;;;;;0.10;0.10;;;;;;;21.19;47.54;101960.22;5121548;27;20489;-44
2023/05/24 03:14:12;;;;;;;0.10;0.10;;;;;;;21.17;47.70;101952.19;5121204;27;20631;-41
2023/05/24 03:16:37;;;;;;;0.20;0.20;;;;;;;21.17;47.71;101951.38;5117258;27;20334;-42
2023/05/24 03:19:04;;;;;;;0.20;0.20;;;;;;;21.15;47.73;101954.41;5120566;27;20047;-42
2023/05/24 03:21:32;;;;;;;0.20;0.20;;;;;;;21.16;47.76;101947.78;5109193;27;20546;-43
2023/05/24 03:23:58;;;;;;;0.10;0.10;;;;;;;21.17;47.63;101956.91;5109102;27;20047;-42
2023/05/24 03:26:24;;;;;;;0.10;0.10;;;;;;;21.16;47.67;101950.53;5108085;27;20049;-47
2023/05/24 03:28:50;;;;;;;0.10;0.10;;;;;;;21.16;47.58;101944.19;5114327;27;20067;-41
2023/05/24 03:31:16;;;;;;;0.10;0.10;;;;;;;21.16;47.80;101945.00;5119197;27;20159;-42
2023/05/24 03:33:42;;;;;;;0.10;0.10;;;;;;;21.17;47.73;101943.06;5123230;27;20047;-42
2023/05/24 03:36:08;;;;;;;0.10;0.10;;;;;;;21.16;47.60;101942.22;5127372;27;20039;-44
2023/05/24 03:38:34;;;;;;;0.15;0.15;;;;;;;21.16;47.73;101947.78;5123373;27;20046;-43
2023/05/24 03:41:00;;;;;;;0.20;0.20;;;;;;;21.15;47.77;101951.63;5104498;28;20047;-43
2023/05/24 03:43:25;;;;;;;0.20;0.20;;;;;;;21.16;47.59;101956.09;5119900;27;20256;-41
2023/05/24 03:45:51;;;;;;;0.20;0.20;;;;;;;21.16;47.70;101949.72;5130429;27;20051;-42
2023/05/24 03:48:19;;;;;;;0.20;0.20;;;;;;;21.16;47.67;101946.94;5120301;27;20043;-44
2023/05/24 03:50:45;;;;;;;0.10;0.10;;;;;;;21.16;47.63;101953.31;5124891;27;20039;-41
2023/05/24 03:53:11;;;;;;;0.20;0.20;;;;;;;21.15;47.76;101956.34;5122625;27;20039;-42
2023/05/24 03:55:37;;;;;;;0.20;0.20;;;;;;;21.16;47.75;101960.78;5121765;27;20039;-42
2023/05/24 03:58:02;;;;;;;0.10;0.10;;;;;;;21.16;47.80;101966.34;5120005;27;20430;-43
2023/05/24 04:00:28;;;;;;;0.20;0.20;;;;;;;21.15;47.73;101971.00;5130446;27;20039;-43
2023/05/24 04:02:54;;;;;;;0.20;0.20;;;;;;;21.15;47.71;101959.09;5100602;27;20407;-42
2023/05/24 04:05:20;;;;;;;0.10;0.10;;;;;;;21.15;47.65;101962.72;5125243;27;20070;-45
2023/05/24 04:07:46;;;;;;;0.20;0.20;;;;;;;21.15;47.54;101954.41;5114666;27;20069;-42
2023/05/24 04:10:12;;;;;;;0.20;0.20;;;;;;;21.15;47.71;101971.00;5122229;27;20482;-44
2023/05/24 04:12:39;;;;;;;0.20;0.20;;;;;;;21.15;47.73;101967.41;5121711;27;20039;-42
2023/05/24 04:15:06;;;;;;;0.20;0.20;;;;;;;21.15;47.68;101956.34;5095758;27;20078;-45
2023/05/24 04:17:33;;;;;;;0.20;0.20;;;;;;;21.14;47.55;101952.72;5123300;27;20042;-42
2023/05/24 04:20:00;;;;;;;0.20;0.20;;;;;;;21.14;47.71;101958.28;5133379;27;20046;-42
2023/05/24 04:22:26;;;;;;;0.20;0.20;;;;;;;21.14;47.58;101963.81;5120308;27;20159;-45
2023/05/24 04:24:51;;;;;;;0.20;0.20;;;;;;;21.13;47.62;101967.69;5104000;28;20141;-41
2023/05/24 04:27:17;;;;;;;0.20;0.20;;;;;;;21.14;47.55;101960.22;5085409;27;20432;-43
2023/05/24 04:29:44;;;;;;;0.10;0.10;;;;;;;21.14;47.73;101971.28;5114765;27;20038;-42
2023/05/24 04:32:13;;;;;;;0.20;0.20;;;;;;;21.13;47.79;101977.94;5110001;27;20148;-42
2023/05/24 04:34:41;;;;;;;0.10;0.10;;;;;;;21.13;47.67;101973.22;5125455;27;20044;-43
2023/05/24 04:37:07;;;;;;;0.10;0.10;;;;;;;21.14;47.75;101976.84;5129454;27;20047;-42
2023/05/24 04:39:33;;;;;;;0.20;0.20;;;;;;;21.11;47.77;101969.88;5137053;27;20406;-43
2023/05/24 04:41:59;;;;;;;0.20;0.20;;;;;;;21.09;47.90;101977.63;5122540;27;20076;-43
2023/05/24 04:44:26;;;;;;;0.20;0.20;;;;;;;21.07;47.29;101971.56;5107172;27;20357;-43
2023/05/24 04:46:52;;;;;;;0.20;0.20;;;;;;;21.08;45.43;101972.38;5131126;27;20039;-43
2023/05/24 04:49:18;;;;;;;0.20;0.20;;;;;;;21.08;44.82;101973.22;5123419;27;20054;-45
2023/05/24 04:51:44;;;;;;;0.20;0.20;;;;;;;21.08;44.80;101978.75;5110437;27;20042;-43
2023/05/24 04:54:10;;;;;;;0.10;0.10;;;;;;;21.08;44.41;101981.53;5106751;28;20043;-42
2023/05/24 04:56:37;;;;;;;0.10;0.10;;;;;;;21.08;44.74;101980.69;5130571;27;20434;-43
2023/05/24 04:59:04;;;;;;;0.20;0.20;;;;;;;21.08;44.42;101980.69;5128542;27;20070;-41
2023/05/24 05:01:30;;;;;;;0.20;0.20;;;;;;;21.08;47.50;101991.78;5130732;27;20043;-47
2023/05/24 05:03:56;;;;;;;0.20;0.20;;;;;;;21.08;47.58;101992.59;5126485;27;20617;-41
2023/05/24 05:06:21;;;;;;;0.20;0.20;;;;;;;21.09;47.46;101993.44;5130622;27;20050;-41
2023/05/24 05:08:47;;;;;;;0.20;0.20;;;;;;;21.05;47.66;101991.19;5120683;27;20503;-42
2023/05/24 05:11:13;;;;;;;0.20;0.20;;;;;;;21.06;47.73;102000.31;5132738;27;20159;-41
2023/05/24 05:13:39;;;;;;;0.20;0.20;;;;;;;21.04;47.66;102003.38;5120522;27;20057;-42
2023/05/24 05:16:05;;;;;;;0.20;0.20;;;;;;;21.04;46.67;102006.16;5123684;27;20058;-42
2023/05/24 05:18:31;;;;;;;0.20;0.20;;;;;;;21.05;44.99;102016.13;5105573;27;20129;-42
2023/05/24 05:20:57;;;;;;;0.20;0.20;;;;;;;21.05;44.58;102013.34;5129147;27;20517;-44
2023/05/24 05:23:22;;;;;;;0.20;0.20;;;;;;;21.05;44.54;102024.41;5128648;27;20030;-43
2023/05/24 05:25:48;;;;;;;0.20;0.20;;;;;;;21.05;44.52;102016.13;5123285;27;20451;-42
2023/05/24 05:28:14;;;;;;;0.20;0.20;;;;;;;21.06;44.57;102016.94;5124039;27;20055;-44
2023/05/24 05:30:39;;;;;;;0.20;0.20;;;;;;;21.06;45.10;102025.25;5123030;27;20039;-41
2023/05/24 05:33:05;;;;;;;0.20;0.20;;;;;;;21.04;44.66;102011.69;5132507;27;20042;-42
2023/05/24 05:35:32;;;;;;;0.20;0.20;;;;;;;21.04;44.71;102014.44;5118683;27;20045;-43
2023/05/24 05:37:58;;;;;;;0.20;0.20;;;;;;;21.03;44.34;102012.78;5110663;27;20069;-42
2023/05/24 05:40:24;;;;;;;0.22;0.22;;;;;;;21.04;44.64;102010.84;5127421;27;20454;-43
2023/05/24 05:42:49;;;;;;;0.20;0.20;;;;;;;21.02;44.39;102015.81;5119566;27;20031;-44
2023/05/24 05:45:15;;;;;;;0.20;0.20;;;;;;;21.03;44.02;102023.03;5126446;27;20035;-44
2023/05/24 05:47:42;;;;;;;0.20;0.20;;;;;;;21.04;44.37;102014.44;5103401;27;20514;-42
2023/05/24 05:50:08;;;;;;;0.20;0.20;;;;;;;21.03;44.13;102010.03;5104116;27;20456;-42
2023/05/24 05:52:33;;;;;;;0.20;0.20;;;;;;;21.02;44.32;102018.56;5119652;27;20035;-43
2023/05/24 05:54:59;;;;;;;0.43;0.43;;;;;;;21.03;44.32;102011.97;5127764;27;20042;-41
2023/05/24 05:57:25;;;;;;;0.20;0.20;;;;;;;21.02;44.18;102019.41;5120855;27;20478;-42
2023/05/24 05:59:51;;;;;;;0.20;0.20;;;;;;;21.02;43.63;102013.88;5087761;27;20143;-44
2023/05/24 06:02:18;;;;;;;0.20;0.20;;;;;;;21.02;44.02;102011.09;5090406;27;20050;-41
2023/05/24 06:04:45;;;;;;;0.20;0.20;;;;;;;21.02;44.33;102018.56;5096698;27;20444;-42
2023/05/24 06:07:11;;;;;;;0.20;0.20;;;;;;;21.01;43.57;102011.38;5100201;27;20673;-42
2023/05/24 06:09:36;;;;;;;0.10;0.10;;;;;;;21.01;43.82;102017.75;5112874;27;20047;-43
2023/05/24 06:12:02;;;;;;;0.20;0.20;;;;;;;21.00;43.61;102012.50;5108500;27;20046;-42
2023/05/24 06:14:28;;;;;;;0.20;0.20;;;;;;;21.01;44.00;102017.75;5116100;27;20043;-46
2023/05/24 06:16:54;;;;;;;0.20;0.20;;;;;;;21.00;43.65;101999.47;5111637;27;20046;-41
2023/05/24 06:19:20;;;;;;;0.20;0.20;;;;;;;21.00;43.81;101993.94;5116202;27;20144;-43
2023/05/24 06:21:48;;;;;;;0.20;0.20;;;;;;;21.01;43.48;102000.31;5118074;27;20047;-41
2023/05/24 06:24:14;;;;;;;0.10;0.10;;;;;;;21.01;43.63;101994.75;5113253;27;20059;-44
2023/05/24 06:26:40;;;;;;;0.20;0.20;;;;;;;21.00;43.83;101998.63;5098082;27;20065;-45
2023/05/24 06:29:07;;;;;;;0.20;0.20;;;;;;;21.00;43.64;101999.47;5102700;27;20400;-43
2023/05/24 06:31:33;;;;;;;0.20;0.20;;;;;;;21.00;44.03;102002.25;5123529;27;20077;-42
2023/05/24 06:33:59;;;;;;;0.20;0.20;;;;;;;21.00;44.17;102018.84;5117579;27;20043;-43
2023/05/24 06:36:32;;;;;;;0.20;0.20;;;;;;;21.00;43.62;102018.03;5096590;27;20042;-43
2023/05/24 06:38:58;;;;;;;0.20;0.20;;;;;;;21.00;43.55;102027.16;5116673;27;20134;-45
2023/05/24 06:41:25;;;;;;;0.20;0.20;;;;;;;21.00;44.01;102029.94;5102158;27;20099;-42
2023/05/24 06:43:51;;;;;;;0.20;0.20;;;;;;;21.00;44.25;102031.88;5118797;27;20039;-42
2023/05/24 06:46:17;;;;;;;0.20;0.20;;;;;;;20.99;44.41;102027.44;5092485;27;20115;-43
2023/05/24 06:48:42;;;;;;;0.20;0.20;;;;;;;20.98;44.23;102023.84;5112498;27;20211;-42
2023/05/24 06:51:08;;;;;;;0.20;0.20;;;;;;;20.99;44.15;102031.03;5116163;27;20091;-46
2023/05/24 06:53:34;;;;;;;0.20;0.20;;;;;;;20.99;44.50;102025.50;5103476;27;20442;-42
2023/05/24 06:56:00;;;;;;;0.20;0.20;;;;;;;21.00;44.65;102027.16;5112527;27;20063;-42
2023/05/24 06:58:25;;;;;;;0.20;0.20;;;;;;;21.00;44.21;102024.41;5103742;27;20039;-46
2023/05/24 07:00:51;;;;;;;0.20;0.20;;;;;;;20.96;43.41;102026.03;5102650;27;20129;-58
2023/05/24 07:03:17;;;;;;;0.20;0.20;;;;;;;20.84;43.24;102027.31;5087529;27;20519;-43
2023/05/24 07:05:43;;;;;;;0.20;0.20;;;;;;;20.90;43.15;102021.56;5093620;27;20055;-42
2023/05/24 07:08:09;;;;;;;0.20;0.20;;;;;;;20.94;44.12;102016.31;5096681;27;20083;-44
2023/05/24 07:10:35;;;;;;;0.20;0.20;;;;;;;20.95;43.30;102029.06;5096990;27;20035;-43
2023/05/24 07:13:00;;;;;;;0.20;0.20;;;;;;;20.97;43.59;102032.41;5100228;27;20186;-41
2023/05/24 07:15:26;;;;;;;0.10;0.10;;;;;;;20.97;43.57;102032.41;5111198;27;20402;-44
2023/05/24 07:17:52;;;;;;;0.17;0.17;;;;;;;20.97;45.70;102030.47;5115263;27;20047;-43
2023/05/24 07:20:18;;;;;;;0.20;0.20;;;;;;;20.99;44.92;102030.22;5109367;27;21386;-41
2023/05/24 07:22:43;;;;;;;0.20;0.20;;;;;;;20.97;43.47;102030.47;5110590;27;20783;-42
2023/05/24 07:25:09;;;;;;;0.20;0.20;;;;;;;20.16;41.08;102036.09;5109214;27;20054;-50
2023/05/24 07:27:35;;;;;;;0.20;0.20;;;;;;;20.68;41.87;102037.44;5111656;27;20410;-48
2023/05/24 07:30:02;;;;;;;0.20;0.20;;;;;;;20.85;43.29;102035.34;5114292;27;20100;-53
2023/05/24 07:32:28;;;;;;;0.20;0.20;;;;;;;20.92;44.77;102027.66;5114778;27;20479;-50
2023/05/24 07:34:53;;;;;;;0.20;0.20;;;;;;;20.96;45.00;102026.03;5115708;27;20611;-49
2023/05/24 07:37:22;;;;;;;0.10;0.10;;;;;;;20.99;45.20;102031.03;5121040;27;20501;-49
2023/05/24 07:39:49;;;;;;;0.20;0.20;;;;;;;21.00;45.26;102027.16;5121420;27;20099;-51
2023/05/24 07:42:14;;;;;;;0.20;0.20;;;;;;;21.00;45.47;102032.69;5120319;27;20075;-51
2023/05/24 07:44:41;;;;;;;0.20;0.20;;;;;;;21.00;43.71;102032.69;5116892;27;20458;-50
2023/05/24 07:47:06;;;;;;;0.20;0.20;;;;;;;21.01;43.77;102037.13;5111464;27;20039;-46
2023/05/24 07:49:32;;;;;;;0.20;0.20;;;;;;;21.02;43.36;102037.97;5115642;27;20043;-48
2023/05/24 07:51:59;;;;;;;0.20;0.20;;;;;;;21.02;43.64;102040.72;5115146;27;20467;-49
2023/05/24 07:54:25;;;;;;;0.20;0.20;;;;;;;21.02;44.37;102036.03;5095206;27;20054;-51
2023/05/24 07:56:51;;;;;;;0.20;0.20;;;;;;;21.02;45.25;102030.50;5110813;27;20042;-50
2023/05/24 07:59:17;;;;;;;0.20;0.20;;;;;;;21.02;43.29;102024.94;5091046;27;20513;-46
2023/05/24 08:01:43;;;;;;;0.20;0.20;;;;;;;21.03;43.46;102031.34;5114492;27;20113;-49
2023/05/24 08:04:09;;;;;;;0.15;0.15;;;;;;;21.01;43.14;102030.75;5084755;27;20489;-50
2023/05/24 08:06:35;;;;;;;0.32;0.32;;;;;;;20.99;43.09;102019.97;5104350;27;20120;-50
2023/05/24 08:09:02;;;;;;;0.20;0.20;;;;;;;20.97;42.65;102024.09;5102424;27;20734;-47
2023/05/24 08:11:28;;;;;;;0.20;0.20;;;;;;;20.99;42.73;102022.72;5079808;27;21048;-47
2023/05/24 08:13:54;;;;;;;0.20;0.20;;;;;;;21.00;43.15;102026.34;5077291;27;20541;-49
2023/05/24 08:16:19;;;;;;;0.20;0.20;;;;;;;21.02;43.49;102021.34;5114075;27;20043;-47
2023/05/24 08:18:45;;;;;;;0.20;0.20;;;;;;;21.02;43.83;102011.09;5110400;27;20054;-49
2023/05/24 08:21:11;;;;;;;0.20;0.20;;;;;;;21.02;43.37;102024.94;5111899;27;20538;-51
2023/05/24 08:23:37;;;;;;;0.20;0.20;;;;;;;21.03;43.78;102025.81;5095382;27;20061;-50
2023/05/24 08:26:02;;;;;;;0.20;0.20;;;;;;;21.01;43.53;102028.81;5111831;27;20073;-50
2023/05/24 08:28:28;;;;;;;0.20;0.20;;;;;;;21.03;44.30;102026.63;5113424;27;20046;-48
2023/05/24 08:30:54;;;;;;;0.20;0.20;;;;;;;21.02;44.04;102033.25;5092787;27;20440;-46
2023/05/24 08:33:21;;;;;;;0.10;0.10;;;;;;;21.01;43.62;102033.53;5100957;27;20054;-47
2023/05/24 08:35:49;;;;;;;0.20;0.20;;;;;;;21.04;44.22;102036.59;5099901;27;20273;-50
2023/05/24 08:38:14;;;;;;;0.20;0.20;;;;;;;21.02;43.94;102030.50;5080768;27;20119;-50
2023/05/24 08:40:41;;;;;;;0.20;0.20;;;;;;;21.03;43.87;102036.88;5094047;27;20485;-50
2023/05/24 08:43:10;;;;;;;0.20;0.20;;;;;;;21.05;43.99;102038.28;5109169;27;20049;-51
2023/05/24 08:45:38;;;;;;;0.20;0.20;;;;;;;21.03;43.10;102032.19;5090612;27;20043;-48
2023/05/24 08:48:05;;;;;;;0.20;0.20;;;;;;;21.02;42.79;102043.50;5074545;27;20082;-46
2023/05/24 08:50:32;;;;;;;0.20;0.20;;;;;;;21.01;43.03;102037.13;5087023;27;20044;-48
2023/05/24 08:52:58;;;;;;;0.20;0.20;;;;;;;21.02;42.68;102030.50;5116790;27;20294;-48
2023/05/24 08:55:24;;;;;;;0.15;0.15;;;;;;;21.02;42.69;102027.72;5111128;27;20075;-50
2023/05/24 08:57:51;;;;;;;0.20;0.20;;;;;;;21.02;42.37;102021.34;5089106;27;20042;-47
2023/05/24 09:00:18;;;;;;;0.20;0.20;;;;;;;21.01;42.65;102026.06;5108216;27;20714;-51
2023/05/24 09:02:44;;;;;;;0.20;0.20;;;;;;;21.02;42.49;102024.13;5123883;27;20307;-50
2023/05/24 09:05:13;;;;;;;0.10;0.10;;;;;;;21.03;43.68;102001.72;5088947;27;20434;-53
2023/05/24 09:07:39;;;;;;;0.20;0.20;;;;;;;20.97;43.33;102018.56;5084759;27;20043;-52
2023/05/24 09:10:07;;;;;;;0.20;0.20;;;;;;;21.01;42.31;102005.84;5086893;27;20079;-47
2023/05/24 09:12:34;;;;;;;0.20;0.20;;;;;;;21.03;42.78;102007.25;5086102;27;20038;-51
2023/05/24 09:15:05;;;;;;;0.20;0.20;;;;;;;21.04;42.76;102002.53;5092329;27;21023;-48
2023/05/24 09:17:31;;;;;;;0.20;0.20;;;;;;;21.03;42.70;102003.66;5088403;27;20495;-48
2023/05/24 09:19:59;;;;;;;0.20;0.20;;;;;;;21.04;44.00;101995.06;5092356;27;20616;-49
2023/05/24 09:22:27;;;;;;;0.20;0.20;;;;;;;21.05;43.41;102002.25;5089657;27;20281;-50
2023/05/24 09:24:57;;;;;;;0.10;0.10;;;;;;;21.04;43.54;101997.84;5092975;27;20623;-51
2023/05/24 09:27:22;;;;;;;0.20;0.20;;;;;;;21.02;42.36;102000.03;5088432;27;20071;-48
2023/05/24 09:29:50;;;;;;;0.20;0.20;;;;;;;21.03;42.58;102004.47;5112173;27;20062;-49
2023/05/24 09:32:17;;;;;;;0.10;0.10;;;;;;;21.01;42.46;102012.22;5093841;27;20043;-48
2023/05/24 09:34:46;;;;;;;0.20;0.20;;;;;;;20.99;42.64;101997.81;5111684;27;20039;-49
2023/05/24 09:37:17;;;;;;;0.17;0.17;;;;;;;20.97;42.42;102002.75;5088159;27;20047;-52
2023/05/24 09:39:43;;;;;;;0.20;0.20;;;;;;;20.93;41.89;102006.34;5074758;27;20791;-51
2023/05/24 09:42:19;;;;;;;0.20;0.20;;;;;;;20.97;42.07;102002.75;5077335;28;20043;-50
2023/05/24 09:44:47;;;;;;;0.10;0.10;;;;;;;20.99;41.90;102016.38;5111827;27;20050;-47
2023/05/24 09:47:13;;;;;;;0.20;0.20;;;;;;;21.00;42.32;102002.25;5109703;27;20904;-49
2023/05/24 09:49:40;;;;;;;0.20;0.20;;;;;;;21.00;42.19;102005.00;5103442;27;20074;-46
2023/05/24 09:52:05;;;;;;;0.13;0.13;;;;;;;21.02;41.73;102001.97;5092747;27;20050;-51
2023/05/24 09:54:32;;;;;;;0.20;0.20;;;;;;;21.04;41.96;102000.59;5113854;27;20084;-47
2023/05/24 09:57:00;;;;;;;0.20;0.20;;;;;;;21.04;42.39;101995.06;5118930;27;20095;-48
2023/05/24 09:59:32;;;;;;;0.10;0.10;;;;;;;21.05;42.44;101998.66;5098182;27;20046;-46
2023/05/24 10:02:06;;;;;;;;;;;;;;;21.07;41.95;101993.72;5115571;27;20046;-48
2023/05/24 10:04:32;;;;;;;0.20;0.20;;;;;;;21.07;42.77;101988.16;5118530;27;19974;-48
2023/05/24 10:06:58;;;;;;;0.20;0.20;;;;;;;21.08;42.68;101992.59;5096464;27;20040;-48
2023/05/24 10:09:25;;;;;;;0.10;0.10;;;;;;;21.09;44.30;101987.88;5117893;27;20077;-48
2023/05/24 10:11:50;;;;;;;0.20;0.20;;;;;;;21.08;43.84;101987.06;5118437;27;20069;-48
2023/05/24 10:14:16;;;;;;;0.20;0.20;;;;;;;21.08;42.83;101983.47;5113922;27;20721;-47
2023/05/24 10:16:42;;;;;;;0.20;0.20;;;;;;;21.08;43.03;101989.81;5112113;27;20055;-48
2023/05/24 10:19:08;;;;;;;0.20;0.20;;;;;;;21.05;43.05;101979.28;5112877;27;20540;-47
2023/05/24 10:21:36;;;;;;;0.20;0.20;;;;;;;21.06;42.75;101989.25;5121972;27;20732;-52
2023/05/24 10:24:02;;;;;;;0.10;0.10;;;;;;;21.08;42.94;101995.38;5115527;27;20047;-47
2023/05/24 10:26:31;;;;;;;0.20;0.20;;;;;;;21.08;42.95;101991.78;5096780;27;20051;-49
2023/05/24 10:29:04;;;;;;;0.20;0.20;;;;;;;21.07;42.69;101995.63;5095843;27;20386;-51
2023/05/24 10:31:33;;;;;;;0.20;0.20;;;;;;;21.06;42.44;102000.31;5085921;27;20047;-47
2023/05/24 10:34:01;;;;;;;0.20;0.20;;;;;;;21.03;41.54;101998.94;5095827;27;20270;-50
2023/05/24 10:36:47;;;;;;;0.17;0.17;;;;;;;21.05;42.50;101996.72;5086846;27;20046;-47
2023/05/24 10:39:13;;;;;;;0.20;0.20;;;;;;;21.04;42.51;101989.53;5113171;27;20046;-50
2023/05/24 10:41:40;;;;;;;0.20;0.20;;;;;;;21.05;42.54;101987.59;5107831;27;20490;-52
2023/05/24 10:44:11;;;;;;;0.10;0.10;;;;;;;21.04;42.43;101988.69;5104056;27;20470;-48
2023/05/24 10:47:00;;;;;;;0.20;0.20;;;;;;;21.03;41.99;101973.19;5090479;27;20538;-51
2023/05/24 10:49:26;;;;;;;0.10;0.10;;;;;;;21.03;41.20;101978.72;5094923;27;20066;-47
2023/05/24 10:52:00;;;;;;;0.20;0.20;;;;;;;21.04;41.35;101977.63;5112723;27;20415;-48
2023/05/24 10:54:26;;;;;;;0.20;0.20;;;;;;;21.03;41.96;101978.72;5087735;27;20070;-48
2023/05/24 10:56:52;;;;;;;0.20;0.20;;;;;;;21.05;42.70;101973.75;5107976;27;20071;-50
2023/05/24 10:59:27;;;;;;;0.20;0.20;;;;;;;21.03;41.95;101965.72;5108938;27;20505;-48
2023/05/24 11:01:55;;;;;;;0.10;0.10;;;;;;;21.04;42.35;101972.06;5074262;27;20043;-48
2023/05/24 11:04:20;;;;;;;0.20;0.20;;;;;;;21.03;41.75;101974.03;5110427;27;20102;-52
2023/05/24 11:06:49;;;;;;;0.20;0.20;;;;;;;21.02;41.77;101968.72;5108450;27;20363;-50
2023/05/24 11:09:16;;;;;;;0.20;0.20;;;;;;;21.04;41.82;101974.84;5090626;27;20523;-48
2023/05/24 11:11:44;;;;;;;0.20;0.20;;;;;;;21.05;42.44;101963.50;5093823;27;20038;-47
2023/05/24 11:14:10;;;;;;;0.10;0.10;;;;;;;20.71;40.29;101970.47;5121782;27;20035;-47
2023/05/24 11:16:37;;;;;;;0.20;0.20;;;;;;;20.69;39.79;101973.53;5112987;27;20046;-50
2023/05/24 11:19:22;;;;;;;0.20;0.20;;;;;;;20.87;40.38;101972.25;5084427;28;20621;-50
2023/05/24 11:21:50;;;;;;;0.10;0.10;;;;;;;20.93;40.67;101973.09;5060903;28;20139;-47
2023/05/24 11:24:17;;;;;;;0.20;0.20;;;;;;;20.98;41.02;101967.59;5094891;28;20099;-48